Time;durP1;ratioP1;P1;durP2;ratioP2;P2;SDS_P1;SDS_P2;PMS_P1;PMS_P2;Temp;Humidity;BMP_temperature;BMP_pressure;BME280_temperature;BME280_humidity;BME280_pressure;Samples;Min_cycle;Max_cycle;Signal;HPM_P1;HPM_P2
2021/04/11 00:00:22;;;;;;;0.4;0.4;;;;;;;11.07;46.24023;933.0617;;;;
2021/04/11 00:02:48;;;;;;;0.4;0.4;;;;;;;11.16;45.98828;932.9341;;;;
2021/04/11 00:05:14;;;;;;;1.2;0.8;;;;;;;11.26;46.83398;932.9358;;;;
2021/04/11 00:07:40;;;;;;;0.6;0.5;;;;;;;11.21;46.34668;932.9603;;;;
2021/04/11 00:10:05;;;;;;;0.6;0.4;;;;;;;11.2;44.81445;932.9579;;;;
2021/04/11 00:12:31;;;;;;;0.5;0.5;;;;;;;11.2;46.01465;932.9229;;;;
2021/04/11 00:14:57;;;;;;;0.4;0.4;;;;;;;11.31;45.97949;932.9277;;;;
2021/04/11 00:17:23;;;;;;;0.4;0.4;;;;;;;11.37;45.02637;932.9037;;;;
2021/04/11 00:19:52;;;;;;;0.4;0.4;;;;;;;11.33;46.46289;932.9142;;;;
2021/04/11 00:22:17;;;;;;;0.3;0.3;;;;;;;11.49;46.08008;932.9069;;;;
2021/04/11 00:24:42;;;;;;;2;0.5;;;;;;;11.59;46.55957;932.8651;;;;
2021/04/11 00:27:08;;;;;;;6.5;0.5;;;;;;;11.59;46.36523;932.8929;;;;
2021/04/11 00:29:33;;;;;;;0.7;0.6;;;;;;;11.67;46.58008;932.8308;;;;
2021/04/11 00:32:00;;;;;;;0.6;0.6;;;;;;;11.61;46.96289;932.7908;;;;
2021/04/11 00:34:26;;;;;;;0.7;0.5;;;;;;;11.66;46.32617;932.716;;;;
2021/04/11 00:36:50;;;;;;;0.5;0.4;;;;;;;11.67;46.66113;932.7335;;;;
2021/04/11 00:39:16;;;;;;;0.5;0.3;;;;;;;11.64;47.11426;932.7289;;;;
2021/04/11 00:41:41;;;;;;;0.4;0.4;;;;;;;11.46;47.5752;932.7308;;;;
2021/04/11 00:44:07;;;;;;;0.3;0.3;;;;;;;11.42;48.97852;932.6998;;;;
2021/04/11 00:46:34;;;;;;;0.2;0.2;;;;;;;11.35;49.56641;932.7004;;;;
2021/04/11 00:48:59;;;;;;;0.3;0.2;;;;;;;11.43;49.28809;932.6495;;;;
2021/04/11 00:51:24;;;;;;;1.2;0.5;;;;;;;11.47;48.67578;932.6136;;;;
2021/04/11 00:53:49;;;;;;;1;0.4;;;;;;;11.39;50.37207;932.6558;;;;
2021/04/11 00:56:16;;;;;;;2;0.6;;;;;;;10.93;48.77539;932.6091;;;;
2021/04/11 00:58:41;;;;;;;0.7;0.5;;;;;;;10.85;47.45117;932.5806;;;;
2021/04/11 01:01:08;;;;;;;0.6;0.6;;;;;;;11.05;49.08398;932.5439;;;;
2021/04/11 01:03:33;;;;;;;0.3;0.3;;;;;;;11.05;50.29785;932.5606;;;;
2021/04/11 01:06:00;;;;;;;0.6;0.4;;;;;;;10.82;51.52637;932.5503;;;;
2021/04/11 01:08:25;;;;;;;0.3;0.3;;;;;;;10.8;52.07324;932.4951;;;;
2021/04/11 01:10:53;;;;;;;0.5;0.5;;;;;;;10.87;51.88672;932.4674;;;;
2021/04/11 01:13:24;;;;;;;0.5;0.4;;;;;;;10.92;51.08105;932.4539;;;;
2021/04/11 01:15:57;;;;;;;0.4;0.4;;;;;;;10.88;50.64258;932.4204;;;;
2021/04/11 01:18:29;;;;;;;0.6;0.6;;;;;;;10.76;51.22266;932.5253;;;;
2021/04/11 01:21:01;;;;;;;0.5;0.5;;;;;;;10.66;50.73145;932.4681;;;;
2021/04/11 01:23:26;;;;;;;0.5;0.4;;;;;;;10.57;50.77832;932.4288;;;;
2021/04/11 01:25:53;;;;;;;0.3;0.3;;;;;;;10.69;50.18652;932.2436;;;;
2021/04/11 01:28:19;;;;;;;0.5;0.5;;;;;;;10.72;49.31055;932.3016;;;;
2021/04/11 01:30:44;;;;;;;0.6;0.2;;;;;;;10.73;51.09375;932.2673;;;;
2021/04/11 01:33:12;;;;;;;0.7;0.4;;;;;;;10.74;50.68359;932.2427;;;;
2021/04/11 01:35:37;;;;;;;0.5;0.5;;;;;;;10.89;50.78125;932.285;;;;
2021/04/11 01:38:06;;;;;;;0.5;0.4;;;;;;;10.96;51.12109;932.2706;;;;
2021/04/11 01:40:31;;;;;;;0.3;0.3;;;;;;;10.88;50.33398;932.2969;;;;
2021/04/11 01:43:00;;;;;;;0.3;0.3;;;;;;;11.02;49.7793;932.254;;;;
2021/04/11 01:45:26;;;;;;;1.5;0.6;;;;;;;10.85;49.53027;932.2723;;;;
2021/04/11 01:47:51;;;;;;;0.4;0.4;;;;;;;10.81;49.60742;932.2612;;;;
2021/04/11 01:50:16;;;;;;;0.6;0.6;;;;;;;10.73;51.27637;932.1989;;;;
2021/04/11 01:52:46;;;;;;;1.3;0.2;;;;;;;10.67;51.93164;932.2205;;;;
2021/04/11 01:55:11;;;;;;;0.5;0.2;;;;;;;10.82;51.22949;932.207;;;;
2021/04/11 01:57:37;;;;;;;0.9;0.7;;;;;;;10.86;51.16602;932.25;;;;
2021/04/11 02:00:02;;;;;;;3.9;0.3;;;;;;;10.81;50.63477;932.1872;;;;
2021/04/11 02:02:28;;;;;;;0.5;0.4;;;;;;;10.74;51.08398;932.2316;;;;
2021/04/11 02:04:53;;;;;;;1.5;0.8;;;;;;;10.63;50.19141;932.2452;;;;
2021/04/11 02:07:21;;;;;;;5.4;0.6;;;;;;;10.66;50.78809;932.1401;;;;
2021/04/11 02:09:47;;;;;;;0.8;0.4;;;;;;;10.66;51.57617;932.1727;;;;
2021/04/11 02:12:11;;;;;;;0.3;0.3;;;;;;;10.67;50.65234;932.1488;;;;
2021/04/11 02:14:39;;;;;;;1.5;0.6;;;;;;;10.63;49.3125;932.09;;;;
2021/04/11 02:17:20;;;;;;;0.4;0.3;;;;;;;10.8;47.85645;932.0889;;;;
2021/04/11 02:19:45;;;;;;;0.4;0.3;;;;;;;10.93;49.56348;932.1169;;;;
2021/04/11 02:22:16;;;;;;;0.4;0.4;;;;;;;10.88;49.63672;932.1345;;;;
2021/04/11 02:24:41;;;;;;;2;0.4;;;;;;;10.89;50.69043;932.0978;;;;
2021/04/11 02:27:09;;;;;;;1.6;0.8;;;;;;;10.76;50.78906;932.1367;;;;
2021/04/11 02:29:34;;;;;;;0.3;0.3;;;;;;;10.77;51.47559;932.0563;;;;
2021/04/11 02:32:04;;;;;;;0.6;0.5;;;;;;;10.83;50.6709;932.0717;;;;
2021/04/11 02:34:29;;;;;;;0.3;0.3;;;;;;;10.85;49.58691;932.0366;;;;
2021/04/11 02:36:54;;;;;;;0.5;0.5;;;;;;;10.91;50.63574;932.0652;;;;
2021/04/11 02:39:20;;;;;;;0.4;0.4;;;;;;;10.88;49.77441;932.0739;;;;
2021/04/11 02:41:45;;;;;;;0.4;0.4;;;;;;;10.92;48.62402;932.0555;;;;
2021/04/11 02:44:10;;;;;;;0.5;0.5;;;;;;;10.87;47.75098;932.0715;;;;
2021/04/11 02:46:37;;;;;;;2;0.6;;;;;;;10.98;49.07715;932.0602;;;;
2021/04/11 02:49:02;;;;;;;0.2;0.2;;;;;;;11.04;47.88379;932.0754;;;;
2021/04/11 02:51:27;;;;;;;0.8;0.6;;;;;;;10.93;47.32422;932.1216;;;;
2021/04/11 02:53:52;;;;;;;0.6;0.5;;;;;;;10.91;47.22949;932.0865;;;;
2021/04/11 02:56:17;;;;;;;1.1;0.5;;;;;;;10.89;47.2168;932.0038;;;;
2021/04/11 02:58:43;;;;;;;0.6;0.5;;;;;;;10.96;47.28027;932.022;;;;
2021/04/11 03:01:09;;;;;;;4.6;0.9;;;;;;;10.97;46.69824;931.928;;;;
2021/04/11 03:03:34;;;;;;;0.6;0.3;;;;;;;10.96;46.92676;931.9766;;;;
2021/04/11 03:05:59;;;;;;;0.5;0.4;;;;;;;10.93;48.01953;931.968;;;;
2021/04/11 03:08:27;;;;;;;0.7;0.5;;;;;;;11;47.92578;931.8943;;;;
2021/04/11 03:10:53;;;;;;;2.2;0.6;;;;;;;11.25;48.02148;931.8983;;;;
2021/04/11 03:13:18;;;;;;;1;0.8;;;;;;;11.29;47.90039;931.8973;;;;
2021/04/11 03:15:50;;;;;;;0.5;0.5;;;;;;;11.29;48.08301;931.9069;;;;
2021/04/11 03:18:22;;;;;;;1.4;0.4;;;;;;;11.36;48.77637;931.9353;;;;
2021/04/11 03:20:51;;;;;;;0.5;0.3;;;;;;;11.35;49.02734;931.9163;;;;
2021/04/11 03:23:18;;;;;;;0.4;0.4;;;;;;;11.38;48.54004;931.9009;;;;
2021/04/11 03:25:43;;;;;;;0.6;0.6;;;;;;;11.19;49.85645;931.7994;;;;
2021/04/11 03:28:08;;;;;;;0.9;0.6;;;;;;;11.31;48.18848;931.8144;;;;
2021/04/11 03:30:34;;;;;;;1.5;0.4;;;;;;;11.37;48.72168;931.8786;;;;
2021/04/11 03:32:59;;;;;;;2.4;0.6;;;;;;;11.42;49.48145;931.9289;;;;
2021/04/11 03:35:30;;;;;;;4.1;0.5;;;;;;;11.39;48.21973;931.9073;;;;
2021/04/11 03:37:58;;;;;;;0.6;0.5;;;;;;;11.33;49.28809;931.9434;;;;
2021/04/11 03:40:24;;;;;;;0.4;0.4;;;;;;;11.25;50.94922;931.9189;;;;
2021/04/11 03:42:51;;;;;;;0.5;0.4;;;;;;;11.07;51.8877;931.9336;;;;
2021/04/11 03:45:16;;;;;;;6;0.8;;;;;;;11.01;52.20117;931.9446;;;;
2021/04/11 03:47:43;;;;;;;0.7;0.5;;;;;;;10.86;50.28613;931.9458;;;;
2021/04/11 03:50:08;;;;;;;0.3;0.3;;;;;;;10.83;48.4668;931.9498;;;;
2021/04/11 03:52:33;;;;;;;0.3;0.3;;;;;;;10.94;48.63867;931.9081;;;;
2021/04/11 03:54:58;;;;;;;0.6;0.6;;;;;;;11.11;49.21777;931.9677;;;;
2021/04/11 03:57:24;;;;;;;0.6;0.6;;;;;;;11.1;47.93652;931.9503;;;;
2021/04/11 03:59:50;;;;;;;2.8;0.3;;;;;;;11.07;48.76855;932.0156;;;;
2021/04/11 04:02:28;;;;;;;1.1;0.3;;;;;;;11.21;48.45117;931.9053;;;;
2021/04/11 04:04:52;;;;;;;1.1;0.6;;;;;;;11.32;48.45215;931.9944;;;;
2021/04/11 04:07:18;;;;;;;0.9;0.5;;;;;;;11.39;47.4873;931.9742;;;;
2021/04/11 04:09:43;;;;;;;0.4;0.4;;;;;;;11.54;47.82422;932.0009;;;;
2021/04/11 04:12:09;;;;;;;0.6;0.5;;;;;;;11.59;48.26563;931.9816;;;;
2021/04/11 04:14:34;;;;;;;0.4;0.4;;;;;;;11.58;48.12695;931.9824;;;;
2021/04/11 04:17:16;;;;;;;1.4;0.3;;;;;;;11.41;46.68945;931.967;;;;
2021/04/11 04:19:45;;;;;;;0.7;0.4;;;;;;;11.44;46.85352;931.9815;;;;
2021/04/11 04:22:10;;;;;;;0.8;0.4;;;;;;;11.45;46.8418;931.9559;;;;
2021/04/11 04:24:35;;;;;;;0.8;0.5;;;;;;;11.37;46.76465;931.9871;;;;
2021/04/11 04:27:01;;;;;;;0.7;0.4;;;;;;;11.3;47.52441;931.9172;;;;
2021/04/11 04:29:28;;;;;;;0.6;0.4;;;;;;;11.41;46.41504;931.998;;;;
2021/04/11 04:31:57;;;;;;;0.8;0.4;;;;;;;11.48;46.66211;931.9846;;;;
2021/04/11 04:34:24;;;;;;;1;0.6;;;;;;;11.61;46.61914;931.9953;;;;
2021/04/11 04:36:50;;;;;;;0.7;0.5;;;;;;;11.73;46.90723;931.9955;;;;
2021/04/11 04:39:15;;;;;;;1.3;0.7;;;;;;;11.76;47.95215;931.9372;;;;
2021/04/11 04:41:40;;;;;;;0.9;0.5;;;;;;;11.64;48.22461;931.9992;;;;
2021/04/11 04:44:05;;;;;;;1.4;0.4;;;;;;;11.53;48.98047;931.9819;;;;
2021/04/11 04:46:31;;;;;;;0.6;0.5;;;;;;;11.54;48.91113;931.9476;;;;
2021/04/11 04:48:56;;;;;;;0.5;0.5;;;;;;;11.52;49.45898;931.9596;;;;
2021/04/11 04:51:21;;;;;;;0.2;0.2;;;;;;;11.53;49.4834;931.993;;;;
2021/04/11 04:53:46;;;;;;;0.6;0.5;;;;;;;11.49;50.34961;931.9693;;;;
2021/04/11 04:56:11;;;;;;;0.7;0.7;;;;;;;11.42;49.59668;932.0016;;;;
2021/04/11 04:58:36;;;;;;;0.9;0.6;;;;;;;11.54;49.63281;931.9954;;;;
2021/04/11 05:01:02;;;;;;;1.1;0.7;;;;;;;11.58;48.57324;932.0247;;;;
2021/04/11 05:03:27;;;;;;;0.5;0.5;;;;;;;11.53;48.24707;931.9858;;;;
2021/04/11 05:05:52;;;;;;;0.5;0.5;;;;;;;11.61;48.29004;931.9886;;;;
2021/04/11 05:08:17;;;;;;;0.8;0.4;;;;;;;11.55;49.76074;931.9938;;;;
2021/04/11 05:10:42;;;;;;;0.6;0.6;;;;;;;11.61;49.7666;931.9746;;;;
2021/04/11 05:13:08;;;;;;;0.8;0.5;;;;;;;11.72;48.70313;932.0179;;;;
2021/04/11 05:15:40;;;;;;;0.5;0.3;;;;;;;11.73;49.59766;932.0346;;;;
2021/04/11 05:18:07;;;;;;;2.3;0.7;;;;;;;11.74;49.2666;931.9811;;;;
2021/04/11 05:20:33;;;;;;;0.2;0.2;;;;;;;11.78;49.84375;931.9684;;;;
2021/04/11 05:22:58;;;;;;;2.3;0.6;;;;;;;11.83;48.76172;931.9797;;;;
2021/04/11 05:25:26;;;;;;;2.9;0.4;;;;;;;11.82;50.10059;931.9398;;;;
2021/04/11 05:27:52;;;;;;;0.4;0.3;;;;;;;11.79;50.91992;931.9692;;;;
2021/04/11 05:30:17;;;;;;;0.8;0.6;;;;;;;11.67;50.64355;931.932;;;;
2021/04/11 05:32:42;;;;;;;0.6;0.6;;;;;;;11.83;50.18164;931.9142;;;;
2021/04/11 05:35:07;;;;;;;1.4;0.7;;;;;;;11.84;49.12891;931.9317;;;;
2021/04/11 05:37:33;;;;;;;0.7;0.6;;;;;;;11.8;48.70117;931.9523;;;;
2021/04/11 05:40:00;;;;;;;0.4;0.3;;;;;;;11.7;51.32227;931.9582;;;;
2021/04/11 05:42:25;;;;;;;1.1;0.3;;;;;;;11.55;49.40527;931.9467;;;;
2021/04/11 05:44:51;;;;;;;0.2;0.2;;;;;;;11.85;50.55078;931.9253;;;;
2021/04/11 05:47:16;;;;;;;0.7;0.5;;;;;;;11.94;48.6709;931.8761;;;;
2021/04/11 05:49:41;;;;;;;0.9;0.5;;;;;;;11.94;48.79688;931.8674;;;;
2021/04/11 05:52:07;;;;;;;1;0.6;;;;;;;11.91;49.37695;931.8101;;;;
2021/04/11 05:54:32;;;;;;;2.8;0.6;;;;;;;11.83;50.00879;931.7842;;;;
2021/04/11 05:56:57;;;;;;;0.2;0.2;;;;;;;11.83;49.58691;931.7068;;;;
2021/04/11 05:59:22;;;;;;;4;0.4;;;;;;;11.94;48.60254;931.7397;;;;
2021/04/11 06:01:47;;;;;;;0.4;0.4;;;;;;;12.25;46.02344;931.7213;;;;
2021/04/11 06:04:13;;;;;;;0.4;0.4;;;;;;;12.54;46.51367;931.6705;;;;
2021/04/11 06:06:38;;;;;;;0.4;0.4;;;;;;;12.87;47.66211;931.7159;;;;
2021/04/11 06:09:03;;;;;;;1.1;0.7;;;;;;;12.93;49.01074;931.7169;;;;
2021/04/11 06:11:28;;;;;;;0.9;0.7;;;;;;;13.03;46.65625;931.6705;;;;
2021/04/11 06:13:54;;;;;;;0.4;0.3;;;;;;;13.04;44.5;931.6736;;;;
2021/04/11 06:16:39;;;;;;;0.9;0.4;;;;;;;13.1;43.9541;931.6234;;;;
2021/04/11 06:19:12;;;;;;;0.6;0.6;;;;;;;13.11;43.74805;931.644;;;;
2021/04/11 06:21:43;;;;;;;3.3;0.9;;;;;;;13.19;44.32031;931.5747;;;;
2021/04/11 06:24:15;;;;;;;0.5;0.5;;;;;;;13.47;43.2207;931.5944;;;;
2021/04/11 06:26:41;;;;;;;1.3;0.8;;;;;;;14.07;43.33789;931.6152;;;;
2021/04/11 06:29:06;;;;;;;2.2;0.4;;;;;;;14.75;40.05176;931.5948;;;;
2021/04/11 06:31:32;;;;;;;0.6;0.4;;;;;;;15.1;38.54883;931.5347;;;;
2021/04/11 06:33:57;;;;;;;1.7;0.3;;;;;;;15.8;37.93945;931.5644;;;;
2021/04/11 06:36:22;;;;;;;1.3;0.3;;;;;;;16.43;37.41602;931.5008;;;;
2021/04/11 06:38:47;;;;;;;1.4;0.5;;;;;;;16.45;36.49121;931.473;;;;
2021/04/11 06:41:12;;;;;;;0.4;0.4;;;;;;;16.95;35.16602;931.4297;;;;
2021/04/11 06:43:38;;;;;;;1.4;0.6;;;;;;;17.4;34.57617;931.4014;;;;
2021/04/11 06:46:03;;;;;;;0.5;0.5;;;;;;;17.53;33.77344;931.3773;;;;
2021/04/11 06:48:28;;;;;;;0.5;0.3;;;;;;;17.38;33.80859;931.4359;;;;
2021/04/11 06:50:53;;;;;;;2.8;0.4;;;;;;;17.51;33.34375;931.3447;;;;
2021/04/11 06:55:03;;;;;;;0.4;0.3;;;;;;;16.82;35.57324;931.3198;;;;
2021/04/11 06:57:29;;;;;;;0.9;0.6;;;;;;;16.94;34.31934;931.3136;;;;
2021/04/11 06:59:54;;;;;;;1.1;0.4;;;;;;;16.82;36.15137;931.3086;;;;
2021/04/11 07:02:19;;;;;;;0.3;0.3;;;;;;;16.66;35.57227;931.2874;;;;
2021/04/11 07:06:29;;;;;;;0.6;0.3;;;;;;;17.03;36.22754;931.2784;;;;
2021/04/11 07:08:54;;;;;;;2.2;0.5;;;;;;;17.32;34.03613;931.2516;;;;
2021/04/11 07:11:27;;;;;;;0.3;0.3;;;;;;;17.35;34.03809;931.1895;;;;
2021/04/11 07:13:49;;;;;;;2.5;0.6;;;;;;;17.23;34.13379;931.2098;;;;
2021/04/11 07:16:23;;;;;;;0.3;0.3;;;;;;;17.22;34.56152;931.2228;;;;
2021/04/11 07:19:43;;;;;;;0.1;0.1;;;;;;;17.73;35.6709;931.2109;;;;
2021/04/11 07:22:09;;;;;;;0.5;0.4;;;;;;;18.14;33.40234;931.188;;;;
2021/04/11 07:24:34;;;;;;;0.8;0.4;;;;;;;17.36;33.88867;931.2715;;;;
2021/04/11 07:26:59;;;;;;;0.2;0.1;;;;;;;17.07;34.16699;931.2308;;;;
2021/04/11 07:29:24;;;;;;;2.5;0.4;;;;;;;17.3;34.37109;931.2249;;;;
2021/04/11 07:31:51;;;;;;;0.3;0.3;;;;;;;17.17;33.9082;931.2288;;;;
2021/04/11 07:34:14;;;;;;;1.4;0.6;;;;;;;17.06;34.10938;931.1786;;;;
2021/04/11 07:36:39;;;;;;;0.3;0.3;;;;;;;16.94;34.19141;931.0923;;;;
2021/04/11 07:39:04;;;;;;;0.3;0.3;;;;;;;17.4;34.06543;931.1633;;;;
2021/04/11 07:41:30;;;;;;;2.7;0.4;;;;;;;18.1;32.19141;931.1707;;;;
2021/04/11 07:43:55;;;;;;;0.5;0.3;;;;;;;18.01;32.90527;931.1223;;;;
2021/04/11 07:46:30;;;;;;;0.3;0.3;;;;;;;18.18;33.29004;931.1616;;;;
2021/04/11 07:48:55;;;;;;;2;1;;;;;;;18.33;31.55762;931.2014;;;;
2021/04/11 07:51:20;;;;;;;0.5;0.5;;;;;;;18.38;31.38672;931.2322;;;;
2021/04/11 07:53:46;;;;;;;2.1;0.3;;;;;;;18.59;31.81934;931.1735;;;;
2021/04/11 07:56:10;;;;;;;1;0.4;;;;;;;18.86;31.33887;931.15;;;;
2021/04/11 07:58:41;;;;;;;0.4;0.4;;;;;;;20.62;29.86328;931.1164;;;;
2021/04/11 08:01:06;;;;;;;0.3;0.2;;;;;;;21.7;28.41406;931.1154;;;;
2021/04/11 08:03:31;;;;;;;0.8;0.3;;;;;;;21.78;26.86133;931.1108;;;;
2021/04/11 08:05:56;;;;;;;0.6;0.6;;;;;;;22.23;26.32617;931.0457;;;;
2021/04/11 08:08:24;;;;;;;0.2;0.2;;;;;;;21.65;26.7002;931.0432;;;;
2021/04/11 08:10:49;;;;;;;0.4;0.2;;;;;;;21.78;26.39258;931.0596;;;;
2021/04/11 08:13:14;;;;;;;1.8;0.6;;;;;;;20.85;27.68164;930.9959;;;;
2021/04/11 08:15:43;;;;;;;0.5;0.2;;;;;;;20.18;28.80664;930.9892;;;;
2021/04/11 08:18:08;;;;;;;0.5;0.3;;;;;;;18.51;30.46582;931.0871;;;;
2021/04/11 08:20:38;;;;;;;0.7;0.4;;;;;;;17.65;31.96094;931.1711;;;;
2021/04/11 08:24:54;;;;;;;0.2;0.2;;;;;;;17.5;32.78516;931.1326;;;;
2021/04/11 08:27:24;;;;;;;0.3;0.3;;;;;;;17.79;33.19043;931.189;;;;
2021/04/11 08:29:52;;;;;;;0.2;0.2;;;;;;;17.49;32.80859;931.1736;;;;
2021/04/11 08:32:17;;;;;;;0.2;0.2;;;;;;;17.31;33.96582;931.1553;;;;
2021/04/11 08:34:47;;;;;;;0.2;0.2;;;;;;;17.24;33.94922;931.1644;;;;
2021/04/11 08:37:12;;;;;;;1.7;0.7;;;;;;;17.24;33.87891;931.1839;;;;
2021/04/11 08:39:36;;;;;;;1.3;0.3;;;;;;;17.48;33.49219;931.1781;;;;
2021/04/11 08:42:02;;;;;;;0.4;0.3;;;;;;;17.68;33.87793;931.2286;;;;
2021/04/11 08:44:30;;;;;;;0.2;0.2;;;;;;;17.98;32.58887;931.2512;;;;
2021/04/11 08:46:55;;;;;;;0.2;0.1;;;;;;;18.24;32.53906;931.2124;;;;
2021/04/11 08:49:20;;;;;;;0.6;0.5;;;;;;;18.49;31.02246;931.1783;;;;
2021/04/11 08:51:45;;;;;;;0.2;0.1;;;;;;;18.27;31.4248;931.1672;;;;
2021/04/11 08:54:10;;;;;;;0.1;0.1;;;;;;;18.01;32.11523;931.1972;;;;
2021/04/11 08:56:36;;;;;;;0.6;0.4;;;;;;;17.81;33.62109;931.1724;;;;
2021/04/11 08:59:01;;;;;;;0.3;0.3;;;;;;;18.29;33.50684;931.1102;;;;
2021/04/11 09:01:28;;;;;;;0.4;0.4;;;;;;;18.23;33.63086;931.0136;;;;
2021/04/11 11:38:07;;;;;;;0.3;0.3;;;;;;;20.19;29.63574;930.7964;;;;
2021/04/11 11:40:32;;;;;;;0.3;0.3;;;;;;;20.65;28.86133;930.7488;;;;
2021/04/11 11:42:57;;;;;;;0.2;0.1;;;;;;;20.88;28.34961;930.7058;;;;
2021/04/11 11:45:23;;;;;;;0.4;0.2;;;;;;;21.28;28.41016;930.7266;;;;
2021/04/11 11:47:48;;;;;;;0.1;0.1;;;;;;;21.09;27.74316;930.663;;;;
2021/04/11 11:50:13;;;;;;;0.2;0.1;;;;;;;20.96;27.73438;930.657;;;;
2021/04/11 11:52:40;;;;;;;0;0;;;;;;;20.47;29.25781;930.7383;;;;
2021/04/11 11:55:05;;;;;;;0;0;;;;;;;20.14;30.33301;930.7338;;;;
2021/04/11 11:57:30;;;;;;;0;0;;;;;;;19.86;32.14551;930.757;;;;
2021/04/11 11:59:57;;;;;;;0.1;0.1;;;;;;;20.18;30.03223;930.7621;;;;
2021/04/11 12:02:22;;;;;;;0.2;0.1;;;;;;;20;29.32031;930.7478;;;;
2021/04/11 12:04:50;;;;;;;0.3;0.3;;;;;;;19.4;31.0166;930.8239;;;;
2021/04/11 12:07:15;;;;;;;0.3;0.1;;;;;;;19.67;31.86328;930.7559;;;;
2021/04/11 12:09:40;;;;;;;0.2;0.2;;;;;;;19.98;29.69238;930.7678;;;;
2021/04/11 12:12:05;;;;;;;0;0;;;;;;;19.92;30.27148;930.7936;;;;
2021/04/11 12:14:47;;;;;;;0.2;0.2;;;;;;;19.73;30.42188;930.7075;;;;
2021/04/11 12:17:11;;;;;;;0.2;0.1;;;;;;;19.89;29.83789;930.7955;;;;
2021/04/11 12:19:36;;;;;;;0;0;;;;;;;20.16;29.66895;930.7344;;;;
2021/04/11 12:22:02;;;;;;;0.4;0.3;;;;;;;20.18;30.69824;930.6689;;;;
2021/04/11 12:24:27;;;;;;;0.5;0.2;;;;;;;20.33;31.52637;930.7173;;;;
2021/04/11 12:26:53;;;;;;;0.6;0.2;;;;;;;19.91;31.19238;930.7285;;;;
2021/04/11 12:29:18;;;;;;;0.5;0.4;;;;;;;20.2;30.0918;930.7436;;;;
2021/04/11 12:31:43;;;;;;;0.3;0.2;;;;;;;19.92;29.9209;930.7519;;;;
2021/04/11 12:34:08;;;;;;;0.1;0.1;;;;;;;20.41;29.3584;930.7762;;;;
2021/04/11 12:36:34;;;;;;;0.3;0.2;;;;;;;20.92;28.81934;930.7478;;;;
2021/04/11 12:38:58;;;;;;;2.5;0.2;;;;;;;21.21;28.96777;930.644;;;;
2021/04/11 12:41:25;;;;;;;0.6;0.1;;;;;;;20.68;28.81641;930.7542;;;;
2021/04/11 12:43:52;;;;;;;1.6;0.3;;;;;;;19.82;32.28223;930.7148;;;;
2021/04/11 12:46:18;;;;;;;0.1;0.1;;;;;;;19.66;30.62598;930.7718;;;;
2021/04/11 12:48:43;;;;;;;0;0;;;;;;;19.21;31.45703;930.7393;;;;
2021/04/11 12:51:11;;;;;;;0.1;0.1;;;;;;;18.87;33.2832;930.8438;;;;
2021/04/11 12:53:36;;;;;;;0.2;0.1;;;;;;;18.62;33.20605;930.7935;;;;
2021/04/11 12:56:06;;;;;;;0.1;0.1;;;;;;;18.17;33.52148;930.7518;;;;
2021/04/11 12:58:31;;;;;;;0.2;0.2;;;;;;;18.13;33.87793;930.7079;;;;
2021/04/11 13:00:56;;;;;;;0.3;0.1;;;;;;;18.4;32.22461;930.8124;;;;
2021/04/11 13:03:22;;;;;;;0.2;0.1;;;;;;;18.92;31.53027;930.825;;;;
2021/04/11 13:05:47;;;;;;;0.1;0.1;;;;;;;19.07;29.47949;930.7606;;;;
2021/04/11 13:08:13;;;;;;;0.2;0.2;;;;;;;19.17;30.12695;930.7942;;;;
2021/04/11 13:10:38;;;;;;;0.2;0.1;;;;;;;19.42;29.91113;930.6878;;;;
2021/04/11 13:13:05;;;;;;;0.1;0.1;;;;;;;19.44;29.67871;930.7438;;;;
2021/04/11 13:15:43;;;;;;;0;0;;;;;;;19.68;28.98438;930.6984;;;;
2021/04/11 13:18:09;;;;;;;0.5;0.2;;;;;;;20.05;28.28516;930.7355;;;;
2021/04/11 13:20:35;;;;;;;0;0;;;;;;;20.12;28.80273;930.7458;;;;
2021/04/11 13:23:00;;;;;;;0.1;0.1;;;;;;;20.38;28.59766;930.7213;;;;
2021/04/11 13:25:31;;;;;;;0;0;;;;;;;20.4;27.86328;930.7461;;;;
2021/04/11 13:27:51;;;;;;;0;0;;;;;;;20.5;27.35547;930.7874;;;;
2021/04/11 13:30:16;;;;;;;0;0;;;;;;;20.72;27.18262;930.7823;;;;
2021/04/11 13:32:41;;;;;;;0;0;;;;;;;20.7;28.57227;930.8042;;;;
2021/04/11 13:35:12;;;;;;;0;0;;;;;;;20.86;28.93359;930.6547;;;;
2021/04/11 13:37:37;;;;;;;0;0;;;;;;;20.52;29.99707;930.6181;;;;
2021/04/11 13:40:02;;;;;;;0.1;0.1;;;;;;;19.8;30.32227;930.709;;;;
2021/04/11 13:42:27;;;;;;;0.3;0.2;;;;;;;19.97;31.47754;930.7035;;;;
2021/04/11 13:44:54;;;;;;;0.3;0.2;;;;;;;19.72;31.20215;930.6507;;;;
2021/04/11 13:47:20;;;;;;;0;0;;;;;;;19.86;30.73438;930.6077;;;;
2021/04/11 13:49:45;;;;;;;0;0;;;;;;;19.8;28.5957;930.6702;;;;
2021/04/11 13:52:10;;;;;;;0;0;;;;;;;20.04;28.64648;930.6476;;;;
2021/04/11 13:54:35;;;;;;;3.1;0.5;;;;;;;20.4;28.71582;930.6631;;;;
2021/04/11 13:57:00;;;;;;;0;0;;;;;;;20.8;28.625;930.6683;;;;
2021/04/11 13:59:25;;;;;;;0.1;0.1;;;;;;;20.92;27.88477;930.6046;;;;
2021/04/11 14:01:50;;;;;;;0.1;0.1;;;;;;;21.13;28.83301;930.5779;;;;
2021/04/11 14:04:16;;;;;;;0.2;0.1;;;;;;;21.07;29.00488;930.5441;;;;
2021/04/11 14:06:40;;;;;;;0;0;;;;;;;21.13;28.40039;930.5134;;;;
2021/04/11 14:09:05;;;;;;;0.1;0;;;;;;;20.92;29.31055;930.356;;;;
2021/04/11 14:11:30;;;;;;;0.5;0.1;;;;;;;20.74;29.41602;930.4008;;;;
2021/04/11 14:13:56;;;;;;;0.1;0.1;;;;;;;19.73;32.01855;930.4694;;;;
2021/04/11 14:16:26;;;;;;;0.2;0.1;;;;;;;19.94;30.89063;930.3809;;;;
2021/04/11 14:18:51;;;;;;;0.1;0.1;;;;;;;20.34;29.85645;930.3574;;;;
2021/04/11 14:21:16;;;;;;;0.4;0.2;;;;;;;20.13;31.58105;930.351;;;;
2021/04/11 14:23:41;;;;;;;0;0;;;;;;;20.02;30.44141;930.3954;;;;
2021/04/11 14:26:06;;;;;;;0;0;;;;;;;19.66;30.21875;930.468;;;;
2021/04/11 14:28:31;;;;;;;0.7;0.1;;;;;;;19.53;30.31445;930.4483;;;;
2021/04/11 14:30:56;;;;;;;0.1;0.1;;;;;;;19.25;31.51855;930.3033;;;;
2021/04/11 14:33:22;;;;;;;0.2;0.1;;;;;;;19.17;31.32617;930.3704;;;;
2021/04/11 14:35:47;;;;;;;0.5;0.2;;;;;;;19.52;29.89453;930.3539;;;;
2021/04/11 14:38:12;;;;;;;0.5;0.3;;;;;;;19.94;29.37402;930.3179;;;;
2021/04/11 14:40:37;;;;;;;0.1;0.1;;;;;;;20.2;30.32617;930.3148;;;;
2021/04/11 14:43:02;;;;;;;0.5;0.2;;;;;;;20.71;29.05078;930.3519;;;;
2021/04/11 14:45:27;;;;;;;0.1;0.1;;;;;;;21.19;28.55566;930.3762;;;;
2021/04/11 14:47:52;;;;;;;0.2;0.1;;;;;;;21.23;27.00391;930.412;;;;
2021/04/11 14:50:18;;;;;;;0.1;0.1;;;;;;;20.98;27.75977;930.4952;;;;
2021/04/11 14:52:44;;;;;;;0.3;0.1;;;;;;;20.21;30.16309;930.5297;;;;
2021/04/11 14:55:09;;;;;;;0;0;;;;;;;19.9;29.25586;930.4171;;;;
2021/04/11 14:57:34;;;;;;;0.3;0;;;;;;;19.9;30.21191;930.4099;;;;
2021/04/11 14:59:59;;;;;;;0.1;0.1;;;;;;;20.14;30.25098;930.4453;;;;
2021/04/11 15:02:25;;;;;;;0.5;0.1;;;;;;;20.13;30.86914;930.3486;;;;
2021/04/11 15:04:50;;;;;;;0.1;0.1;;;;;;;19.7;31.64355;930.2695;;;;
2021/04/11 15:07:15;;;;;;;0.1;0.1;;;;;;;19.37;33.18164;930.222;;;;
2021/04/11 15:09:40;;;;;;;0.1;0.1;;;;;;;19.78;30.61133;930.3166;;;;
2021/04/11 15:12:05;;;;;;;0.1;0;;;;;;;19.95;30.30762;930.3417;;;;
2021/04/11 15:14:30;;;;;;;0.1;0.1;;;;;;;19.92;31.72949;930.3111;;;;
2021/04/11 15:17:04;;;;;;;0.2;0.1;;;;;;;19.8;31.58105;930.2994;;;;
2021/04/11 15:19:31;;;;;;;0;0;;;;;;;20.11;27.8457;930.3622;;;;
2021/04/11 15:21:56;;;;;;;0;0;;;;;;;20.09;29.41895;930.3808;;;;
2021/04/11 15:24:21;;;;;;;0.6;0.3;;;;;;;20.27;29.2207;930.3627;;;;
2021/04/11 15:26:48;;;;;;;0.3;0.2;;;;;;;20.08;30.17773;930.31;;;;
2021/04/11 15:29:14;;;;;;;0.2;0.2;;;;;;;20.45;30.13184;930.2701;;;;
2021/04/11 15:31:40;;;;;;;0.1;0.1;;;;;;;20.18;29.60059;930.277;;;;
2021/04/11 15:34:04;;;;;;;0.1;0.1;;;;;;;19.7;31.23535;930.4012;;;;
2021/04/11 15:36:29;;;;;;;0.1;0.1;;;;;;;19.58;31.01758;930.3261;;;;
2021/04/11 15:38:59;;;;;;;0.1;0.1;;;;;;;19.58;31.20313;930.4361;;;;
2021/04/11 15:41:24;;;;;;;0.9;0.1;;;;;;;19.57;31.09863;930.2798;;;;
2021/04/11 15:43:48;;;;;;;1.3;0.2;;;;;;;19.56;31.22559;930.3448;;;;
2021/04/11 15:46:14;;;;;;;0.1;0.1;;;;;;;19.57;30.30566;930.3095;;;;
2021/04/11 15:48:41;;;;;;;0;0;;;;;;;19.42;31.58887;930.3043;;;;
2021/04/11 15:51:06;;;;;;;0.1;0.1;;;;;;;19.44;30.72852;930.3495;;;;
2021/04/11 15:53:31;;;;;;;0.1;0.1;;;;;;;19.21;31.07324;930.334;;;;
2021/04/11 15:55:56;;;;;;;0;0;;;;;;;19.49;31.19727;930.3963;;;;
2021/04/11 15:58:22;;;;;;;0;0;;;;;;;19.73;30.32813;930.3008;;;;
2021/04/11 16:00:47;;;;;;;0.4;0.1;;;;;;;20.02;30.59277;930.4189;;;;
2021/04/11 16:03:12;;;;;;;0.1;0.1;;;;;;;20.23;29.81445;930.4077;;;;
2021/04/11 16:23:02;;;;;;;0;0;;;;;;;19.95;28.7334;930.5178;;;;
2021/04/11 16:26:10;;;;;;;0;0;;;;;;;19.56;31.55273;930.5635;;;;
2021/04/11 16:28:37;;;;;;;0.4;0.1;;;;;;;19.33;29.01953;930.6168;;;;
2021/04/11 16:31:02;;;;;;;0.2;0.2;;;;;;;19.18;29.41699;930.6381;;;;
2021/04/11 16:33:28;;;;;;;0.1;0.1;;;;;;;18.95;29.84375;930.5847;;;;
2021/04/11 16:35:53;;;;;;;0.2;0.2;;;;;;;19.14;30.55566;930.615;;;;
2021/04/11 16:38:18;;;;;;;0.1;0.1;;;;;;;19.2;29.87305;930.6292;;;;
2021/04/11 16:40:46;;;;;;;0.9;0.2;;;;;;;19.37;30.03516;930.6453;;;;
2021/04/11 16:43:14;;;;;;;0;0;;;;;;;19.39;30.57324;930.6492;;;;
2021/04/11 16:45:39;;;;;;;0;0;;;;;;;19.26;29.31836;930.5424;;;;
2021/04/11 16:48:04;;;;;;;0;0;;;;;;;19.3;29.75098;930.5877;;;;
2021/04/11 16:50:34;;;;;;;0;0;;;;;;;19.36;29.29004;930.5815;;;;
2021/04/11 16:53:00;;;;;;;0;0;;;;;;;19.19;29.46387;930.5603;;;;
2021/04/11 16:55:24;;;;;;;0;0;;;;;;;19.02;29.8252;930.6241;;;;
2021/04/11 16:57:50;;;;;;;0.1;0.1;;;;;;;18.75;29.7959;930.5493;;;;
2021/04/11 17:00:15;;;;;;;0;0;;;;;;;18.65;29.94043;930.6372;;;;
2021/04/11 17:02:40;;;;;;;0.1;0.1;;;;;;;18.51;30.59277;930.66;;;;
2021/04/11 17:05:05;;;;;;;0.3;0.3;;;;;;;18.49;30.56836;930.7404;;;;
2021/04/11 17:07:31;;;;;;;0.1;0.1;;;;;;;18.3;31.32227;930.7406;;;;
2021/04/11 17:09:56;;;;;;;0.2;0.2;;;;;;;18.16;30.60352;930.7208;;;;
2021/04/11 17:12:21;;;;;;;1.4;0.2;;;;;;;18.16;32.11426;930.7786;;;;
2021/04/11 17:14:47;;;;;;;0.2;0.1;;;;;;;18.18;31.88281;930.8409;;;;
2021/04/11 17:17:13;;;;;;;0.2;0.1;;;;;;;18.26;32.15625;930.8331;;;;
2021/04/11 17:19:38;;;;;;;0.1;0;;;;;;;18.3;32.10156;930.8616;;;;